METAR Formatted Surface Weather Observation
Issued by NWS

Home | Current Version | Previous Version | Text Only | Print | Product List | Glossary On
Versions: 1 2 3 4 5 6 7 8 9 10 11 12 13 14 15 16 17 18 19 20 21 22 23 24 25 26 27 28 29
000
SAUS44 KFWD 281858 COR
MTRNFW
METAR KNFW 281852Z 10009G16KT 10SM SCT043 SCT250 32/19 A3005 RMK AO2
SLP160 T03170194 $



USA.gov is the U.S. government's official web portal to all federal, state and local government web resources and services.